sensor_id;sensor_type;location;lat;lon;timestamp;P1;durP1;ratioP1;P2;durP2;ratioP2
36799;SDS011;22752;51.960;5.886;2023-05-07T00:02:25;7.82;;;4.88;;
36799;SDS011;22752;51.960;5.886;2023-05-07T00:04:51;8.48;;;5.40;;
36799;SDS011;22752;51.960;5.886;2023-05-07T00:07:17;8.02;;;6.00;;
36799;SDS011;22752;51.960;5.886;2023-05-07T00:09:42;7.72;;;5.30;;
36799;SDS011;22752;51.960;5.886;2023-05-07T00:12:08;7.25;;;5.05;;
36799;SDS011;22752;51.960;5.886;2023-05-07T00:14:34;7.22;;;4.82;;
36799;SDS011;22752;51.960;5.886;2023-05-07T00:16:59;9.60;;;6.15;;
36799;SDS011;22752;51.960;5.886;2023-05-07T00:19:25;7.32;;;5.70;;
36799;SDS011;22752;51.960;5.886;2023-05-07T00:21:51;7.15;;;5.60;;
36799;SDS011;22752;51.960;5.886;2023-05-07T00:24:18;7.72;;;6.60;;
36799;SDS011;22752;51.960;5.886;2023-05-07T00:26:44;7.43;;;6.28;;
36799;SDS011;22752;51.960;5.886;2023-05-07T00:29:09;8.95;;;6.72;;
36799;SDS011;22752;51.960;5.886;2023-05-07T00:31:35;8.63;;;6.75;;
36799;SDS011;22752;51.960;5.886;2023-05-07T00:34:01;6.53;;;5.30;;
36799;SDS011;22752;51.960;5.886;2023-05-07T00:36:26;9.77;;;6.80;;
36799;SDS011;22752;51.960;5.886;2023-05-07T00:38:53;10.82;;;7.43;;
36799;SDS011;22752;51.960;5.886;2023-05-07T00:41:20;10.60;;;7.47;;
36799;SDS011;22752;51.960;5.886;2023-05-07T00:43:46;8.07;;;6.25;;
36799;SDS011;22752;51.960;5.886;2023-05-07T00:46:12;9.05;;;6.60;;
36799;SDS011;22752;51.960;5.886;2023-05-07T00:48:38;7.38;;;5.40;;
36799;SDS011;22752;51.960;5.886;2023-05-07T00:51:05;10.07;;;7.68;;
36799;SDS011;22752;51.960;5.886;2023-05-07T00:53:30;12.75;;;8.27;;
36799;SDS011;22752;51.960;5.886;2023-05-07T00:55:56;9.07;;;6.90;;
36799;SDS011;22752;51.960;5.886;2023-05-07T00:58:22;9.02;;;7.32;;
36799;SDS011;22752;51.960;5.886;2023-05-07T01:00:49;9.35;;;6.32;;
36799;SDS011;22752;51.960;5.886;2023-05-07T01:03:15;8.70;;;7.20;;
36799;SDS011;22752;51.960;5.886;2023-05-07T01:05:41;10.85;;;7.93;;
36799;SDS011;22752;51.960;5.886;2023-05-07T01:08:09;9.68;;;6.60;;
36799;SDS011;22752;51.960;5.886;2023-05-07T01:10:35;7.72;;;6.45;;
36799;SDS011;22752;51.960;5.886;2023-05-07T01:13:01;9.30;;;6.72;;
36799;SDS011;22752;51.960;5.886;2023-05-07T01:15:27;9.02;;;6.80;;
36799;SDS011;22752;51.960;5.886;2023-05-07T01:17:53;11.52;;;7.53;;
36799;SDS011;22752;51.960;5.886;2023-05-07T01:20:20;10.45;;;8.05;;
36799;SDS011;22752;51.960;5.886;2023-05-07T01:22:48;9.75;;;7.00;;
36799;SDS011;22752;51.960;5.886;2023-05-07T01:25:15;12.05;;;9.30;;
36799;SDS011;22752;51.960;5.886;2023-05-07T01:27:41;9.00;;;7.18;;
36799;SDS011;22752;51.960;5.886;2023-05-07T01:30:07;9.48;;;8.38;;
36799;SDS011;22752;51.960;5.886;2023-05-07T01:32:35;11.00;;;8.23;;
36799;SDS011;22752;51.960;5.886;2023-05-07T01:35:11;13.30;;;9.68;;
36799;SDS011;22752;51.960;5.886;2023-05-07T01:37:39;12.30;;;9.10;;
36799;SDS011;22752;51.960;5.886;2023-05-07T01:40:05;9.60;;;7.20;;
36799;SDS011;22752;51.960;5.886;2023-05-07T01:42:32;10.13;;;8.30;;
36799;SDS011;22752;51.960;5.886;2023-05-07T01:44:58;10.43;;;8.00;;
36799;SDS011;22752;51.960;5.886;2023-05-07T01:47:24;10.80;;;8.98;;
36799;SDS011;22752;51.960;5.886;2023-05-07T01:49:50;13.85;;;9.07;;
36799;SDS011;22752;51.960;5.886;2023-05-07T01:52:16;14.65;;;11.45;;
36799;SDS011;22752;51.960;5.886;2023-05-07T01:54:42;11.68;;;9.15;;
36799;SDS011;22752;51.960;5.886;2023-05-07T01:57:08;13.35;;;9.05;;
36799;SDS011;22752;51.960;5.886;2023-05-07T01:59:33;11.65;;;8.95;;
36799;SDS011;22752;51.960;5.886;2023-05-07T02:01:59;11.77;;;9.38;;
36799;SDS011;22752;51.960;5.886;2023-05-07T02:04:25;14.73;;;9.52;;
36799;SDS011;22752;51.960;5.886;2023-05-07T02:06:51;9.05;;;8.15;;
36799;SDS011;22752;51.960;5.886;2023-05-07T02:09:17;13.55;;;8.63;;
36799;SDS011;22752;51.960;5.886;2023-05-07T02:11:44;11.32;;;9.15;;
36799;SDS011;22752;51.960;5.886;2023-05-07T02:14:09;11.82;;;9.90;;
36799;SDS011;22752;51.960;5.886;2023-05-07T02:16:35;14.10;;;10.57;;
36799;SDS011;22752;51.960;5.886;2023-05-07T02:19:01;11.75;;;9.73;;
36799;SDS011;22752;51.960;5.886;2023-05-07T02:21:27;10.88;;;9.77;;
36799;SDS011;22752;51.960;5.886;2023-05-07T02:23:53;12.07;;;10.88;;
36799;SDS011;22752;51.960;5.886;2023-05-07T02:26:19;14.48;;;11.23;;
36799;SDS011;22752;51.960;5.886;2023-05-07T02:28:44;14.82;;;11.25;;
36799;SDS011;22752;51.960;5.886;2023-05-07T02:31:10;12.32;;;10.75;;
36799;SDS011;22752;51.960;5.886;2023-05-07T02:33:35;11.80;;;9.73;;
36799;SDS011;22752;51.960;5.886;2023-05-07T02:36:08;13.32;;;11.93;;
36799;SDS011;22752;51.960;5.886;2023-05-07T02:38:35;14.02;;;12.02;;
36799;SDS011;22752;51.960;5.886;2023-05-07T02:41:01;15.38;;;13.77;;
36799;SDS011;22752;51.960;5.886;2023-05-07T02:43:27;14.65;;;13.15;;
36799;SDS011;22752;51.960;5.886;2023-05-07T02:46:08;15.82;;;12.90;;
36799;SDS011;22752;51.960;5.886;2023-05-07T02:48:34;13.35;;;11.05;;
36799;SDS011;22752;51.960;5.886;2023-05-07T02:51:01;14.65;;;10.93;;
36799;SDS011;22752;51.960;5.886;2023-05-07T02:53:27;12.25;;;10.98;;
36799;SDS011;22752;51.960;5.886;2023-05-07T02:55:55;17.13;;;14.38;;
36799;SDS011;22752;51.960;5.886;2023-05-07T02:58:21;15.90;;;14.20;;
36799;SDS011;22752;51.960;5.886;2023-05-07T03:00:47;15.95;;;12.90;;
36799;SDS011;22752;51.960;5.886;2023-05-07T03:03:13;15.38;;;13.75;;
36799;SDS011;22752;51.960;5.886;2023-05-07T03:05:39;19.13;;;14.85;;
36799;SDS011;22752;51.960;5.886;2023-05-07T03:08:05;13.95;;;12.35;;
36799;SDS011;22752;51.960;5.886;2023-05-07T03:10:31;14.05;;;12.48;;
36799;SDS011;22752;51.960;5.886;2023-05-07T03:12:57;15.93;;;12.35;;
36799;SDS011;22752;51.960;5.886;2023-05-07T03:15:22;16.55;;;13.75;;
36799;SDS011;22752;51.960;5.886;2023-05-07T03:17:48;20.67;;;16.90;;
36799;SDS011;22752;51.960;5.886;2023-05-07T03:20:14;14.43;;;12.40;;
36799;SDS011;22752;51.960;5.886;2023-05-07T03:22:40;15.95;;;11.55;;
36799;SDS011;22752;51.960;5.886;2023-05-07T03:25:06;16.02;;;14.05;;
36799;SDS011;22752;51.960;5.886;2023-05-07T03:27:32;14.13;;;12.20;;
36799;SDS011;22752;51.960;5.886;2023-05-07T03:29:58;15.10;;;11.90;;
36799;SDS011;22752;51.960;5.886;2023-05-07T03:32:23;18.52;;;14.98;;
36799;SDS011;22752;51.960;5.886;2023-05-07T03:34:49;14.45;;;12.50;;
36799;SDS011;22752;51.960;5.886;2023-05-07T03:37:15;14.60;;;12.90;;
36799;SDS011;22752;51.960;5.886;2023-05-07T03:39:41;14.55;;;11.73;;
36799;SDS011;22752;51.960;5.886;2023-05-07T03:42:06;14.38;;;11.68;;
36799;SDS011;22752;51.960;5.886;2023-05-07T03:44:32;16.58;;;13.82;;
36799;SDS011;22752;51.960;5.886;2023-05-07T03:46:58;13.50;;;11.88;;
36799;SDS011;22752;51.960;5.886;2023-05-07T03:49:23;15.68;;;12.55;;
36799;SDS011;22752;51.960;5.886;2023-05-07T03:51:49;14.88;;;12.32;;
36799;SDS011;22752;51.960;5.886;2023-05-07T03:54:15;16.33;;;12.35;;
36799;SDS011;22752;51.960;5.886;2023-05-07T03:56:40;15.27;;;13.38;;
36799;SDS011;22752;51.960;5.886;2023-05-07T03:59:06;17.80;;;15.13;;
36799;SDS011;22752;51.960;5.886;2023-05-07T04:01:32;15.43;;;13.77;;
36799;SDS011;22752;51.960;5.886;2023-05-07T04:03:57;18.33;;;14.43;;
36799;SDS011;22752;51.960;5.886;2023-05-07T04:06:23;14.88;;;12.63;;
36799;SDS011;22752;51.960;5.886;2023-05-07T04:08:49;14.63;;;13.00;;
36799;SDS011;22752;51.960;5.886;2023-05-07T04:11:16;18.30;;;14.60;;
36799;SDS011;22752;51.960;5.886;2023-05-07T04:13:42;16.15;;;14.40;;
36799;SDS011;22752;51.960;5.886;2023-05-07T04:16:07;15.63;;;13.15;;
36799;SDS011;22752;51.960;5.886;2023-05-07T04:18:33;13.80;;;11.75;;
36799;SDS011;22752;51.960;5.886;2023-05-07T04:20:59;16.83;;;15.05;;
36799;SDS011;22752;51.960;5.886;2023-05-07T04:23:24;14.02;;;12.52;;
36799;SDS011;22752;51.960;5.886;2023-05-07T04:25:50;15.15;;;12.65;;
36799;SDS011;22752;51.960;5.886;2023-05-07T04:28:16;18.73;;;15.40;;
36799;SDS011;22752;51.960;5.886;2023-05-07T04:30:42;19.13;;;16.10;;
36799;SDS011;22752;51.960;5.886;2023-05-07T04:33:08;19.85;;;16.65;;
36799;SDS011;22752;51.960;5.886;2023-05-07T04:35:34;29.92;;;26.70;;
36799;SDS011;22752;51.960;5.886;2023-05-07T04:38:00;40.03;;;34.83;;
36799;SDS011;22752;51.960;5.886;2023-05-07T04:40:26;35.05;;;31.35;;
36799;SDS011;22752;51.960;5.886;2023-05-07T04:42:52;30.10;;;26.70;;
36799;SDS011;22752;51.960;5.886;2023-05-07T04:45:18;26.95;;;24.13;;
36799;SDS011;22752;51.960;5.886;2023-05-07T04:47:43;23.80;;;19.92;;
36799;SDS011;22752;51.960;5.886;2023-05-07T04:50:09;21.70;;;18.60;;
36799;SDS011;22752;51.960;5.886;2023-05-07T04:52:35;21.00;;;17.58;;
36799;SDS011;22752;51.960;5.886;2023-05-07T04:55:01;19.05;;;17.05;;
36799;SDS011;22752;51.960;5.886;2023-05-07T04:57:27;19.90;;;15.88;;
36799;SDS011;22752;51.960;5.886;2023-05-07T04:59:53;19.77;;;17.27;;
36799;SDS011;22752;51.960;5.886;2023-05-07T05:02:19;19.45;;;17.42;;
36799;SDS011;22752;51.960;5.886;2023-05-07T05:04:44;18.35;;;16.23;;
36799;SDS011;22752;51.960;5.886;2023-05-07T05:07:10;19.95;;;17.88;;
36799;SDS011;22752;51.960;5.886;2023-05-07T05:09:36;17.42;;;15.05;;
36799;SDS011;22752;51.960;5.886;2023-05-07T05:12:02;20.05;;;17.95;;
36799;SDS011;22752;51.960;5.886;2023-05-07T05:14:27;20.15;;;18.05;;
36799;SDS011;22752;51.960;5.886;2023-05-07T05:16:53;20.63;;;17.98;;
36799;SDS011;22752;51.960;5.886;2023-05-07T05:19:19;19.00;;;17.00;;
36799;SDS011;22752;51.960;5.886;2023-05-07T05:21:45;21.13;;;18.63;;
36799;SDS011;22752;51.960;5.886;2023-05-07T05:24:10;23.40;;;18.70;;
36799;SDS011;22752;51.960;5.886;2023-05-07T05:26:36;23.92;;;20.67;;
36799;SDS011;22752;51.960;5.886;2023-05-07T05:29:02;19.15;;;16.75;;
36799;SDS011;22752;51.960;5.886;2023-05-07T05:31:27;19.48;;;17.40;;
36799;SDS011;22752;51.960;5.886;2023-05-07T05:33:53;17.60;;;15.85;;
36799;SDS011;22752;51.960;5.886;2023-05-07T05:36:18;24.85;;;20.67;;
36799;SDS011;22752;51.960;5.886;2023-05-07T05:38:44;18.80;;;16.90;;
36799;SDS011;22752;51.960;5.886;2023-05-07T05:41:10;19.77;;;17.67;;
36799;SDS011;22752;51.960;5.886;2023-05-07T05:43:35;18.48;;;15.65;;
36799;SDS011;22752;51.960;5.886;2023-05-07T05:46:01;20.50;;;18.30;;
36799;SDS011;22752;51.960;5.886;2023-05-07T05:48:28;19.35;;;17.38;;
36799;SDS011;22752;51.960;5.886;2023-05-07T05:50:54;20.52;;;18.27;;
36799;SDS011;22752;51.960;5.886;2023-05-07T05:53:20;18.30;;;16.40;;
36799;SDS011;22752;51.960;5.886;2023-05-07T05:55:45;17.98;;;16.17;;
36799;SDS011;22752;51.960;5.886;2023-05-07T05:58:11;17.55;;;15.68;;
36799;SDS011;22752;51.960;5.886;2023-05-07T06:00:37;20.50;;;15.93;;
36799;SDS011;22752;51.960;5.886;2023-05-07T06:03:03;17.13;;;15.32;;
36799;SDS011;22752;51.960;5.886;2023-05-07T06:05:28;16.35;;;14.65;;
36799;SDS011;22752;51.960;5.886;2023-05-07T06:07:54;18.63;;;16.75;;
36799;SDS011;22752;51.960;5.886;2023-05-07T06:10:20;18.33;;;16.42;;
36799;SDS011;22752;51.960;5.886;2023-05-07T06:12:45;21.15;;;19.05;;
36799;SDS011;22752;51.960;5.886;2023-05-07T06:15:11;18.83;;;16.92;;
36799;SDS011;22752;51.960;5.886;2023-05-07T06:17:37;19.42;;;17.38;;
36799;SDS011;22752;51.960;5.886;2023-05-07T06:20:02;19.45;;;15.90;;
36799;SDS011;22752;51.960;5.886;2023-05-07T06:22:28;18.63;;;16.70;;
36799;SDS011;22752;51.960;5.886;2023-05-07T06:24:54;19.45;;;17.45;;
36799;SDS011;22752;51.960;5.886;2023-05-07T06:27:20;18.02;;;16.15;;
36799;SDS011;22752;51.960;5.886;2023-05-07T06:29:47;22.83;;;18.95;;
36799;SDS011;22752;51.960;5.886;2023-05-07T06:32:13;20.10;;;18.00;;
36799;SDS011;22752;51.960;5.886;2023-05-07T06:34:39;18.80;;;16.80;;
36799;SDS011;22752;51.960;5.886;2023-05-07T06:37:06;19.00;;;17.10;;
36799;SDS011;22752;51.960;5.886;2023-05-07T06:39:32;19.02;;;17.02;;
36799;SDS011;22752;51.960;5.886;2023-05-07T06:41:58;17.02;;;15.23;;
36799;SDS011;22752;51.960;5.886;2023-05-07T06:44:24;18.48;;;16.55;;
36799;SDS011;22752;51.960;5.886;2023-05-07T06:46:50;18.23;;;15.65;;
36799;SDS011;22752;51.960;5.886;2023-05-07T06:49:16;17.35;;;15.55;;
36799;SDS011;22752;51.960;5.886;2023-05-07T06:51:41;19.75;;;17.70;;
36799;SDS011;22752;51.960;5.886;2023-05-07T06:54:07;18.50;;;16.45;;
36799;SDS011;22752;51.960;5.886;2023-05-07T06:56:33;20.67;;;18.55;;
36799;SDS011;22752;51.960;5.886;2023-05-07T06:58:59;19.73;;;16.83;;
36799;SDS011;22752;51.960;5.886;2023-05-07T07:01:25;22.42;;;19.60;;
36799;SDS011;22752;51.960;5.886;2023-05-07T07:03:51;19.15;;;17.25;;
36799;SDS011;22752;51.960;5.886;2023-05-07T07:06:17;19.70;;;17.33;;
36799;SDS011;22752;51.960;5.886;2023-05-07T07:08:42;19.10;;;17.08;;
36799;SDS011;22752;51.960;5.886;2023-05-07T07:11:08;21.13;;;17.98;;
36799;SDS011;22752;51.960;5.886;2023-05-07T07:13:35;17.58;;;15.75;;
36799;SDS011;22752;51.960;5.886;2023-05-07T07:16:00;19.67;;;17.67;;
36799;SDS011;22752;51.960;5.886;2023-05-07T07:18:26;21.52;;;18.40;;
36799;SDS011;22752;51.960;5.886;2023-05-07T07:20:52;21.42;;;19.20;;
36799;SDS011;22752;51.960;5.886;2023-05-07T07:23:18;25.02;;;21.50;;
36799;SDS011;22752;51.960;5.886;2023-05-07T07:25:44;23.15;;;20.75;;
36799;SDS011;22752;51.960;5.886;2023-05-07T07:28:09;23.77;;;21.10;;
36799;SDS011;22752;51.960;5.886;2023-05-07T07:30:36;25.10;;;22.35;;
36799;SDS011;22752;51.960;5.886;2023-05-07T07:33:02;20.08;;;18.02;;
36799;SDS011;22752;51.960;5.886;2023-05-07T07:35:37;20.92;;;18.73;;
36799;SDS011;22752;51.960;5.886;2023-05-07T07:38:02;21.10;;;18.83;;
36799;SDS011;22752;51.960;5.886;2023-05-07T07:40:28;22.60;;;20.25;;
36799;SDS011;22752;51.960;5.886;2023-05-07T07:42:54;22.02;;;19.15;;
36799;SDS011;22752;51.960;5.886;2023-05-07T07:45:20;21.58;;;19.38;;
36799;SDS011;22752;51.960;5.886;2023-05-07T07:47:45;24.02;;;20.05;;
36799;SDS011;22752;51.960;5.886;2023-05-07T07:50:11;21.23;;;18.60;;
36799;SDS011;22752;51.960;5.886;2023-05-07T07:52:37;19.88;;;17.08;;
36799;SDS011;22752;51.960;5.886;2023-05-07T07:55:03;27.40;;;20.17;;
36799;SDS011;22752;51.960;5.886;2023-05-07T07:57:29;22.38;;;20.05;;
36799;SDS011;22752;51.960;5.886;2023-05-07T07:59:55;25.98;;;23.38;;
36799;SDS011;22752;51.960;5.886;2023-05-07T08:02:21;22.52;;;20.02;;
36799;SDS011;22752;51.960;5.886;2023-05-07T08:04:46;29.05;;;26.05;;
36799;SDS011;22752;51.960;5.886;2023-05-07T08:07:12;23.35;;;20.95;;
36799;SDS011;22752;51.960;5.886;2023-05-07T08:09:38;28.60;;;22.02;;
36799;SDS011;22752;51.960;5.886;2023-05-07T08:12:05;27.83;;;23.73;;
36799;SDS011;22752;51.960;5.886;2023-05-07T08:14:31;25.88;;;22.85;;
36799;SDS011;22752;51.960;5.886;2023-05-07T08:16:57;24.20;;;21.52;;
36799;SDS011;22752;51.960;5.886;2023-05-07T08:19:23;20.85;;;18.65;;
36799;SDS011;22752;51.960;5.886;2023-05-07T08:21:48;21.77;;;19.48;;
36799;SDS011;22752;51.960;5.886;2023-05-07T08:24:14;23.55;;;19.83;;
36799;SDS011;22752;51.960;5.886;2023-05-07T08:26:40;22.83;;;20.45;;
36799;SDS011;22752;51.960;5.886;2023-05-07T08:29:06;29.60;;;22.70;;
36799;SDS011;22752;51.960;5.886;2023-05-07T08:31:32;25.33;;;22.70;;
36799;SDS011;22752;51.960;5.886;2023-05-07T08:33:58;24.45;;;21.77;;
36799;SDS011;22752;51.960;5.886;2023-05-07T08:36:24;26.75;;;21.77;;
36799;SDS011;22752;51.960;5.886;2023-05-07T08:38:53;23.58;;;21.10;;
36799;SDS011;22752;51.960;5.886;2023-05-07T08:41:19;23.70;;;19.27;;
36799;SDS011;22752;51.960;5.886;2023-05-07T08:43:49;22.40;;;19.73;;
36799;SDS011;22752;51.960;5.886;2023-05-07T08:46:22;24.05;;;20.10;;
36799;SDS011;22752;51.960;5.886;2023-05-07T08:48:48;21.35;;;19.10;;
36799;SDS011;22752;51.960;5.886;2023-05-07T08:51:19;25.40;;;20.80;;
36799;SDS011;22752;51.960;5.886;2023-05-07T08:53:46;23.08;;;19.83;;
36799;SDS011;22752;51.960;5.886;2023-05-07T08:56:14;20.17;;;16.85;;
36799;SDS011;22752;51.960;5.886;2023-05-07T08:58:45;18.63;;;16.73;;
36799;SDS011;22752;51.960;5.886;2023-05-07T09:01:15;21.08;;;18.48;;
36799;SDS011;22752;51.960;5.886;2023-05-07T09:03:41;27.90;;;21.10;;
36799;SDS011;22752;51.960;5.886;2023-05-07T09:06:10;21.80;;;18.63;;
36799;SDS011;22752;51.960;5.886;2023-05-07T09:08:36;23.83;;;19.33;;
36799;SDS011;22752;51.960;5.886;2023-05-07T09:11:02;22.38;;;19.73;;
36799;SDS011;22752;51.960;5.886;2023-05-07T09:13:28;23.02;;;19.30;;
36799;SDS011;22752;51.960;5.886;2023-05-07T09:15:54;21.95;;;17.90;;
36799;SDS011;22752;51.960;5.886;2023-05-07T09:18:20;20.67;;;18.48;;
36799;SDS011;22752;51.960;5.886;2023-05-07T09:20:46;23.02;;;17.60;;
36799;SDS011;22752;51.960;5.886;2023-05-07T09:23:12;20.50;;;17.95;;
36799;SDS011;22752;51.960;5.886;2023-05-07T09:25:38;23.23;;;18.85;;
36799;SDS011;22752;51.960;5.886;2023-05-07T09:28:04;20.05;;;17.67;;
36799;SDS011;22752;51.960;5.886;2023-05-07T09:30:35;22.10;;;18.45;;
36799;SDS011;22752;51.960;5.886;2023-05-07T09:33:02;20.48;;;16.95;;
36799;SDS011;22752;51.960;5.886;2023-05-07T09:35:29;20.00;;;17.90;;
36799;SDS011;22752;51.960;5.886;2023-05-07T09:37:56;22.42;;;18.88;;
36799;SDS011;22752;51.960;5.886;2023-05-07T09:40:23;18.73;;;16.30;;
36799;SDS011;22752;51.960;5.886;2023-05-07T09:42:53;18.40;;;15.65;;
36799;SDS011;22752;51.960;5.886;2023-05-07T09:47:49;17.90;;;15.32;;
36799;SDS011;22752;51.960;5.886;2023-05-07T09:50:20;17.13;;;14.65;;
36799;SDS011;22752;51.960;5.886;2023-05-07T09:53:07;15.52;;;13.90;;
36799;SDS011;22752;51.960;5.886;2023-05-07T09:55:35;18.45;;;14.70;;
36799;SDS011;22752;51.960;5.886;2023-05-07T09:58:02;19.85;;;15.18;;
36799;SDS011;22752;51.960;5.886;2023-05-07T10:00:30;17.40;;;15.10;;
36799;SDS011;22752;51.960;5.886;2023-05-07T10:02:57;20.10;;;15.02;;
36799;SDS011;22752;51.960;5.886;2023-05-07T10:05:24;18.70;;;13.60;;
36799;SDS011;22752;51.960;5.886;2023-05-07T10:07:51;19.33;;;15.02;;
36799;SDS011;22752;51.960;5.886;2023-05-07T10:10:18;16.00;;;13.48;;
36799;SDS011;22752;51.960;5.886;2023-05-07T10:12:44;17.85;;;14.77;;
36799;SDS011;22752;51.960;5.886;2023-05-07T10:15:10;16.30;;;13.57;;
36799;SDS011;22752;51.960;5.886;2023-05-07T10:17:39;18.15;;;13.85;;
36799;SDS011;22752;51.960;5.886;2023-05-07T10:20:06;18.45;;;15.35;;
36799;SDS011;22752;51.960;5.886;2023-05-07T10:22:44;18.48;;;13.95;;
36799;SDS011;22752;51.960;5.886;2023-05-07T10:25:20;17.02;;;14.80;;
36799;SDS011;22752;51.960;5.886;2023-05-07T10:27:48;16.15;;;12.85;;
36799;SDS011;22752;51.960;5.886;2023-05-07T10:33:21;13.95;;;12.10;;
36799;SDS011;22752;51.960;5.886;2023-05-07T10:35:50;16.15;;;12.32;;
36799;SDS011;22752;51.960;5.886;2023-05-07T10:38:16;12.43;;;10.93;;
36799;SDS011;22752;51.960;5.886;2023-05-07T10:40:42;13.35;;;11.95;;
36799;SDS011;22752;51.960;5.886;2023-05-07T10:43:08;15.30;;;13.70;;
36799;SDS011;22752;51.960;5.886;2023-05-07T10:45:35;17.23;;;12.55;;
36799;SDS011;22752;51.960;5.886;2023-05-07T10:48:07;16.17;;;12.50;;
36799;SDS011;22752;51.960;5.886;2023-05-07T10:50:36;17.67;;;12.45;;
36799;SDS011;22752;51.960;5.886;2023-05-07T10:55:48;14.40;;;11.48;;
36799;SDS011;22752;51.960;5.886;2023-05-07T11:00:46;13.98;;;12.43;;
36799;SDS011;22752;51.960;5.886;2023-05-07T11:03:13;13.35;;;11.68;;
36799;SDS011;22752;51.960;5.886;2023-05-07T11:05:40;15.82;;;12.88;;
36799;SDS011;22752;51.960;5.886;2023-05-07T11:08:07;13.18;;;11.77;;
36799;SDS011;22752;51.960;5.886;2023-05-07T11:13:42;11.52;;;10.35;;
36799;SDS011;22752;51.960;5.886;2023-05-07T11:16:21;16.92;;;11.65;;
36799;SDS011;22752;51.960;5.886;2023-05-07T11:18:48;13.00;;;11.25;;
36799;SDS011;22752;51.960;5.886;2023-05-07T11:21:34;12.63;;;10.43;;
36799;SDS011;22752;51.960;5.886;2023-05-07T11:24:01;16.20;;;11.60;;
36799;SDS011;22752;51.960;5.886;2023-05-07T11:26:29;13.80;;;11.45;;
36799;SDS011;22752;51.960;5.886;2023-05-07T11:28:56;10.93;;;9.70;;
36799;SDS011;22752;51.960;5.886;2023-05-07T11:31:25;12.93;;;10.15;;
36799;SDS011;22752;51.960;5.886;2023-05-07T11:33:54;10.25;;;9.15;;
36799;SDS011;22752;51.960;5.886;2023-05-07T11:36:21;11.98;;;9.35;;
36799;SDS011;22752;51.960;5.886;2023-05-07T11:38:48;11.90;;;10.60;;
36799;SDS011;22752;51.960;5.886;2023-05-07T11:41:13;10.65;;;9.48;;
36799;SDS011;22752;51.960;5.886;2023-05-07T11:44:02;14.30;;;9.73;;
36799;SDS011;22752;51.960;5.886;2023-05-07T11:46:27;12.18;;;10.38;;
36799;SDS011;22752;51.960;5.886;2023-05-07T11:48:54;10.05;;;8.60;;
36799;SDS011;22752;51.960;5.886;2023-05-07T11:51:20;11.95;;;10.70;;
36799;SDS011;22752;51.960;5.886;2023-05-07T11:53:48;10.88;;;9.75;;
36799;SDS011;22752;51.960;5.886;2023-05-07T11:56:14;11.18;;;10.00;;
36799;SDS011;22752;51.960;5.886;2023-05-07T11:58:42;9.82;;;8.80;;
36799;SDS011;22752;51.960;5.886;2023-05-07T12:01:09;11.02;;;9.55;;
36799;SDS011;22752;51.960;5.886;2023-05-07T12:03:36;13.95;;;10.82;;
36799;SDS011;22752;51.960;5.886;2023-05-07T12:06:07;11.38;;;10.18;;
36799;SDS011;22752;51.960;5.886;2023-05-07T12:08:35;11.30;;;9.57;;
36799;SDS011;22752;51.960;5.886;2023-05-07T12:11:03;9.93;;;8.90;;
36799;SDS011;22752;51.960;5.886;2023-05-07T12:13:31;12.90;;;11.20;;
36799;SDS011;22752;51.960;5.886;2023-05-07T12:15:57;11.35;;;9.82;;
36799;SDS011;22752;51.960;5.886;2023-05-07T12:18:23;11.20;;;10.00;;
36799;SDS011;22752;51.960;5.886;2023-05-07T12:20:50;10.93;;;9.73;;
36799;SDS011;22752;51.960;5.886;2023-05-07T12:23:16;11.38;;;9.80;;
36799;SDS011;22752;51.960;5.886;2023-05-07T12:25:42;10.13;;;7.90;;
36799;SDS011;22752;51.960;5.886;2023-05-07T12:28:15;10.63;;;9.52;;
36799;SDS011;22752;51.960;5.886;2023-05-07T12:30:43;10.07;;;8.40;;
36799;SDS011;22752;51.960;5.886;2023-05-07T12:33:10;10.45;;;8.63;;
36799;SDS011;22752;51.960;5.886;2023-05-07T12:35:40;13.60;;;10.75;;
36799;SDS011;22752;51.960;5.886;2023-05-07T12:38:10;12.50;;;10.60;;
36799;SDS011;22752;51.960;5.886;2023-05-07T12:40:39;12.23;;;9.60;;
36799;SDS011;22752;51.960;5.886;2023-05-07T12:43:06;9.60;;;8.60;;
36799;SDS011;22752;51.960;5.886;2023-05-07T12:45:38;13.32;;;10.18;;
36799;SDS011;22752;51.960;5.886;2023-05-07T12:48:06;11.10;;;9.77;;
36799;SDS011;22752;51.960;5.886;2023-05-07T12:50:34;12.73;;;8.88;;
36799;SDS011;22752;51.960;5.886;2023-05-07T12:53:00;13.23;;;10.07;;
36799;SDS011;22752;51.960;5.886;2023-05-07T12:55:30;14.35;;;9.93;;
36799;SDS011;22752;51.960;5.886;2023-05-07T12:57:57;12.05;;;9.57;;
36799;SDS011;22752;51.960;5.886;2023-05-07T13:00:37;10.82;;;9.30;;
36799;SDS011;22752;51.960;5.886;2023-05-07T13:03:03;10.50;;;9.13;;
36799;SDS011;22752;51.960;5.886;2023-05-07T13:05:30;12.15;;;9.95;;
36799;SDS011;22752;51.960;5.886;2023-05-07T13:07:57;10.45;;;8.15;;
36799;SDS011;22752;51.960;5.886;2023-05-07T13:10:23;10.02;;;8.30;;
36799;SDS011;22752;51.960;5.886;2023-05-07T13:12:50;10.00;;;8.90;;
36799;SDS011;22752;51.960;5.886;2023-05-07T13:15:16;11.88;;;9.55;;
36799;SDS011;22752;51.960;5.886;2023-05-07T13:17:42;10.82;;;9.50;;
36799;SDS011;22752;51.960;5.886;2023-05-07T13:20:11;11.73;;;9.25;;
36799;SDS011;22752;51.960;5.886;2023-05-07T13:22:40;12.55;;;8.00;;
36799;SDS011;22752;51.960;5.886;2023-05-07T13:25:06;12.18;;;10.10;;
36799;SDS011;22752;51.960;5.886;2023-05-07T13:27:32;12.98;;;10.05;;
36799;SDS011;22752;51.960;5.886;2023-05-07T13:30:01;14.25;;;9.88;;
36799;SDS011;22752;51.960;5.886;2023-05-07T13:32:28;10.48;;;8.85;;
36799;SDS011;22752;51.960;5.886;2023-05-07T13:34:54;8.20;;;7.40;;
36799;SDS011;22752;51.960;5.886;2023-05-07T13:37:20;10.35;;;8.20;;
36799;SDS011;22752;51.960;5.886;2023-05-07T13:39:46;10.30;;;8.38;;
36799;SDS011;22752;51.960;5.886;2023-05-07T13:42:11;10.57;;;8.93;;
36799;SDS011;22752;51.960;5.886;2023-05-07T13:44:37;11.23;;;8.32;;
36799;SDS011;22752;51.960;5.886;2023-05-07T13:47:03;10.55;;;8.15;;
36799;SDS011;22752;51.960;5.886;2023-05-07T13:49:28;9.57;;;8.35;;
36799;SDS011;22752;51.960;5.886;2023-05-07T13:51:54;9.77;;;7.07;;
36799;SDS011;22752;51.960;5.886;2023-05-07T13:54:20;12.45;;;8.30;;
36799;SDS011;22752;51.960;5.886;2023-05-07T13:56:46;10.05;;;7.95;;
36799;SDS011;22752;51.960;5.886;2023-05-07T13:59:12;11.02;;;7.93;;
36799;SDS011;22752;51.960;5.886;2023-05-07T14:01:39;10.32;;;8.10;;
36799;SDS011;22752;51.960;5.886;2023-05-07T14:04:05;9.88;;;7.80;;
36799;SDS011;22752;51.960;5.886;2023-05-07T14:06:31;9.48;;;6.75;;
36799;SDS011;22752;51.960;5.886;2023-05-07T14:08:57;9.25;;;7.40;;
36799;SDS011;22752;51.960;5.886;2023-05-07T14:11:23;10.50;;;7.47;;
36799;SDS011;22752;51.960;5.886;2023-05-07T14:13:48;8.98;;;7.00;;
36799;SDS011;22752;51.960;5.886;2023-05-07T14:16:14;10.43;;;7.10;;
36799;SDS011;22752;51.960;5.886;2023-05-07T14:18:40;9.90;;;6.78;;
36799;SDS011;22752;51.960;5.886;2023-05-07T14:21:05;6.43;;;5.65;;
36799;SDS011;22752;51.960;5.886;2023-05-07T14:23:32;9.85;;;7.70;;
36799;SDS011;22752;51.960;5.886;2023-05-07T14:25:57;10.02;;;7.18;;
36799;SDS011;22752;51.960;5.886;2023-05-07T14:28:23;11.25;;;6.78;;
36799;SDS011;22752;51.960;5.886;2023-05-07T14:30:49;10.80;;;7.32;;
36799;SDS011;22752;51.960;5.886;2023-05-07T14:33:15;7.40;;;6.00;;
36799;SDS011;22752;51.960;5.886;2023-05-07T14:35:41;8.05;;;6.22;;
36799;SDS011;22752;51.960;5.886;2023-05-07T14:38:10;13.85;;;7.10;;
36799;SDS011;22752;51.960;5.886;2023-05-07T14:40:35;10.98;;;7.68;;